Data for 12/19/2006

Time Sea-Level Adjusted Pressure Absolute Pressure Temperature Relative Humidity Dew Point   
(mb) (inHg) (mb) (inHg) (C) (F) (%) (C) (F)
00:05 1024 30.24 853 25.19 -9.1 15.6 56 -16.3 2.6
00:10 1024 30.24 853 25.19 -8.9 16 56 -16.3 2.7
00:15 1024 30.24 853 25.19 -8.6 16.5 55 -16.2 2.9
00:20 1024 30.24 853 25.19 -8.4 16.9 54 -16.1 3
00:25 1024 30.24 853 25.19 -8.6 16.5 54 -16.4 2.4
00:30 1024 30.24 853 25.19 -9 15.8 49 -17.9 -0.3
00:35 1023 30.21 853 25.19 -8.7 16.4 46 -18.4 -1.1
00:40 1023 30.21 853 25.19 -8.5 16.8 45 -18.5 -1.2
00:45 1023 30.21 853 25.19 -8.3 17 43 -18.9 -2
00:50 1023 30.21 853 25.19 -8.1 17.4 42 -19 -2.1
00:55 1023 30.21 852 25.16 -7.9 17.8 40 -19.3 -2.7
01:00 1023 30.21 852 25.16 -7.7 18.1 44 -17.9 -0.2
01:05 1023 30.21 852 25.16 -8.6 16.5 52 -16.7 2
01:10 1023 30.21 852 25.16 -8.9 15.9 52 -17 1.4
01:15 1023 30.21 852 25.16 -8.2 17.2 43 -18.8 -1.8
01:20 1023 30.21 852 25.16 -7.9 17.7 46 -17.7 0.2
01:25 1023 30.21 852 25.16 -8.6 16.5 50 -17.2 1
01:30 1023 30.21 852 25.16 -8.7 16.4 55 -16.2 2.8
01:35 1023 30.21 852 25.16 -8.6 16.6 47 -17.9 -0.2
01:40 1023 30.21 852 25.16 -8.5 16.7 53 -16.5 2.2
01:45 1023 30.21 852 25.16 -8.7 16.4 54 -16.4 2.4
01:50 1023 30.21 852 25.16 -8.7 16.4 55 -16.1 3
01:55 1023 30.21 852 25.16 -9 15.9 57 -16 3.1
02:00 1023 30.21 852 25.16 -8.8 16.2 55 -16.3 2.7
02:05 1023 30.21 852 25.16 -9 15.9 57 -16 3.2
02:10 1023 30.21 852 25.16 -9 15.9 55 -16.5 2.3
02:15 1023 30.21 852 25.16 -8.7 16.4 51 -17.1 1.1
02:20 1023 30.21 852 25.16 -8.7 16.4 49 -17.7 0.2
02:25 1023 30.21 852 25.16 -8.8 16.1 48 -18 -0.4
02:30 1023 30.21 852 25.16 -8.8 16.1 48 -18 -0.4
02:35 1023 30.21 852 25.16 -8.7 16.3 46 -18.3 -1
02:40 1023 30.21 852 25.16 -8.9 15.9 48 -18.1 -0.5
02:45 1023 30.21 852 25.16 -9.1 15.7 46 -18.7 -1.6
02:50 1023 30.21 852 25.16 -9.1 15.7 48 -18.3 -0.9
02:55 1023 30.21 852 25.16 -9 15.9 47 -18.3 -1
03:00 1023 30.21 852 25.16 -8.6 16.5 46 -18.2 -0.8
03:05 1023 30.21 852 25.16 -8.2 17.2 46 -18 -0.5
03:10 1023 30.21 852 25.16 -8.2 17.2 44 -18.5 -1.2
03:15 1023 30.21 852 25.16 -8.1 17.5 50 -16.8 1.7
03:20 1022 30.18 852 25.16 -8.5 16.6 53 -16.6 2.1
03:25 1022 30.18 852 25.16 -9 15.9 58 -15.7 3.7
03:30 1022 30.18 852 25.16 -9.3 15.4 59 -15.8 3.5
03:35 1022 30.18 852 25.16 -9.5 15 60 -15.9 3.4
03:40 1022 30.18 852 25.16 -9.1 15.6 57 -16.2 2.8
03:45 1022 30.18 852 25.16 -8.9 15.9 57 -15.9 3.4
03:50 1022 30.18 851 25.13 -9.2 15.4 58 -16 3.2
03:55 1022 30.18 851 25.13 -8.8 16.2 51 -17.1 1.2
04:00 1022 30.18 851 25.13 -8.9 15.9 50 -17.5 0.5
04:05 1022 30.18 851 25.13 -8.9 15.9 47 -18.4 -1.1
04:10 1022 30.18 851 25.13 -8.5 16.7 46 -18.2 -0.7
04:15 1022 30.18 851 25.13 -8.3 17.2 44 -18.4 -1.1
04:20 1022 30.18 851 25.13 -8.4 16.8 46 -18.2 -0.8
04:25 1022 30.18 851 25.13 -8.5 16.8 47 -17.8 -0.1
04:30 1022 30.18 851 25.13 -8.6 16.6 48 -17.7 0.2
04:35 1022 30.18 851 25.13 -8.9 16 49 -17.8 0
04:40 1022 30.18 851 25.13 -8.9 16 49 -17.8 -0
04:45 1022 30.18 851 25.13 -8.8 16.1 48 -17.9 -0.3
04:50 1022 30.18 851 25.13 -8.8 16.2 48 -17.9 -0.2
04:55 1022 30.18 851 25.13 -8.9 16.1 49 -17.8 -0.1
05:00 1022 30.18 851 25.13 -8.6 16.6 46 -18.2 -0.8
05:05 1022 30.18 851 25.13 -8.4 16.9 49 -17.2 1
05:10 1022 30.18 851 25.13 -8.5 16.8 52 -16.7 2
05:15 1022 30.18 851 25.13 -8.9 16.1 53 -16.7 1.9
05:20 1022 30.18 851 25.13 -9 15.9 58 -15.7 3.7
05:25 1022 30.18 851 25.13 -9.2 15.4 60 -15.6 4
05:30 1022 30.18 851 25.13 -8.8 16.2 55 -16.4 2.5
05:35 1022 30.18 851 25.13 -8.5 16.6 52 -16.7 1.9
05:40 1022 30.18 851 25.13 -8.7 16.3 52 -16.8 1.7
05:45 1022 30.18 851 25.13 -9 15.8 55 -16.4 2.5
05:50 1022 30.18 851 25.13 -9.1 15.5 53 -17.1 1.2
05:55 1022 30.18 851 25.13 -8.7 16.4 47 -18.1 -0.7
06:00 1022 30.18 851 25.13 -8.9 16 48 -18.1 -0.6
06:05 1022 30.18 851 25.13 -9 15.9 48 -18.2 -0.8
06:10 1022 30.18 851 25.13 -9 15.8 48 -18.2 -0.8
06:15 1022 30.18 851 25.13 -8.5 16.8 45 -18.3 -1
06:20 1022 30.18 851 25.13 -8.2 17.2 44 -18.3 -1
06:25 1022 30.18 851 25.13 -8.3 17.1 45 -18.2 -0.8
06:30 1022 30.18 851 25.13 -8.5 16.7 46 -18.3 -0.9
06:35 1021 30.15 851 25.13 -8.5 16.7 48 -17.7 0.2
06:40 1021 30.15 851 25.13 -8.6 16.5 48 -17.8 -0
06:45 1021 30.15 851 25.13 -8.8 16.1 49 -17.7 0.1
06:50 1021 30.15 851 25.13 -8.9 16 49 -17.7 0.2
06:55 1021 30.15 851 25.13 -8.7 16.3 48 -18 -0.3
07:00 1021 30.15 851 25.13 -8.8 16.2 47 -18.2 -0.7
07:05 1021 30.15 851 25.13 -8.6 16.6 46 -18.2 -0.7
07:10 1021 30.15 851 25.13 -8.2 17.2 45 -18.1 -0.6
07:15 1021 30.15 851 25.13 -8 17.5 44 -18.2 -0.7
07:20 1021 30.15 851 25.13 -8 17.6 47 -17.5 0.5
07:25 1021 30.15 851 25.13 -8.4 16.9 50 -16.9 1.5
07:30 1021 30.15 851 25.13 -8.3 17.2 56 -15.5 4.2
07:35 1021 30.15 851 25.13 -8.3 17 58 -15.1 4.7
07:40 1021 30.15 851 25.13 -8.4 16.8 60 -14.9 5.2
07:45 1021 30.15 851 25.13 -8.8 16.2 63 -14.5 5.8
07:50 1021 30.15 851 25.13 -8.8 16.2 63 -14.7 5.6
07:55 1021 30.15 851 25.13 -8.9 16 61 -15.1 4.9
08:00 1021 30.15 851 25.13 -8.9 15.9 61 -15.2 4.6
08:05 1022 30.18 851 25.13 -8.9 16 56 -16.2 2.8
08:10 1022 30.18 851 25.13 -9 15.9 58 -15.8 3.6
08:15 1022 30.18 851 25.13 -8.5 16.6 56 -15.8 3.6
08:20 1022 30.18 851 25.13 -8.5 16.8 57 -15.6 4
08:25 1022 30.18 851 25.13 -8 17.5 54 -15.8 3.6
08:30 1022 30.18 851 25.13 -8.2 17.3 55 -15.7 3.7
08:35 1022 30.18 851 25.13 -8.2 17.2 54 -16.1 3.1
08:40 1022 30.18 851 25.13 -8.3 17.1 56 -15.6 4
08:45 1022 30.18 851 25.13 -8.4 16.9 56 -15.6 3.9
08:50 1022 30.18 851 25.13 -8.4 17 54 -16.2 2.9
08:55 1022 30.18 851 25.13 -7.7 18.2 51 -16.2 2.9
09:00 1022 30.18 851 25.13 -7.4 18.7 51 -15.9 3.4
09:05 1022 30.18 851 25.13 -7.4 18.6 50 -16.2 2.9
09:10 1022 30.18 851 25.13 -7 19.4 48 -16.1 3
09:15 1022 30.18 851 25.13 -6.8 19.8 48 -16.1 2.9
09:20 1022 30.18 851 25.13 -6.6 20.1 47 -16.3 2.7
09:25 1022 30.18 851 25.13 -6.2 20.9 45 -16.1 2.9
09:30 1022 30.18 851 25.13 -5.5 22.1 43 -16.1 3
09:35 1022 30.18 851 25.13 -5.2 22.7 42 -16.1 2.9
09:40 1022 30.18 851 25.13 -4.7 23.6 41 -16 3.3
09:45 1022 30.18 851 25.13 -4.8 23.4 41 -16.3 2.7
09:50 1022 30.18 851 25.13 -4.1 24.6 40 -16 3.2
09:55 1022 30.18 851 25.13 -4 24.8 39 -16 3.3
10:00 1022 30.18 851 25.13 -3.6 25.6 37 -16.4 2.5
10:05 1022 30.18 851 25.13 -3.6 25.5 36 -16.6 2.1
10:10 1022 30.18 851 25.13 -3.1 26.5 33 -17 1.3
10:15 1022 30.18 851 25.13 -3 26.7 38 -15.4 4.3
10:20 1022 30.18 851 25.13 -2.7 27.1 37 -15.4 4.4
10:25 1022 30.18 851 25.13 -2.9 26.7 39 -15.1 4.8
10:30 1022 30.18 851 25.13 -2.9 26.7 38 -15.3 4.5
10:35 1022 30.18 851 25.13 -3 26.6 39 -15.1 4.9
10:40 1022 30.18 851 25.13 -2.5 27.4 38 -15.1 4.9
10:45 1022 30.18 851 25.13 -2.3 27.9 38 -14.7 5.6
10:50 1022 30.18 851 25.13 -2.5 27.5 38 -15 5.1
10:55 1022 30.18 851 25.13 -2.2 28 35 -15.8 3.5
11:00 1022 30.18 851 25.13 -2.1 28.1 35 -15.6 3.9
11:05 1022 30.18 851 25.13 -2 28.4 35 -15.6 4
11:10 1022 30.18 851 25.13 -2.1 28.3 35 -15.7 3.8
11:15 1022 30.18 851 25.13 -2 28.3 35 -15.6 3.9
11:20 1022 30.18 851 25.13 -2.1 28.1 35 -15.7 3.8
11:25 1022 30.18 851 25.13 -2.8 27 39 -15 5
11:30 1022 30.18 851 25.13 -3.2 26.3 40 -15.1 4.9
11:35 1022 30.18 851 25.13 -2.8 26.9 39 -15 4.9
11:40 1022 30.18 851 25.13 -2.8 26.9 36 -15.9 3.3
11:45 1021 30.15 851 25.13 -2.6 27.4 34 -16.4 2.5
11:50 1021 30.15 851 25.13 -2 28.3 34 -15.8 3.5
11:55 1021 30.15 851 25.13 -1.7 29 33 -16 3.3
12:00 1021 30.15 851 25.13 -1.5 29.3 32 -16.3 2.7
12:05 1021 30.15 851 25.13 -1 30.2 32 -15.7 3.8
12:10 1021 30.15 851 25.13 -0.9 30.4 30 -16.3 2.6
12:15 1021 30.15 851 25.13 -1 30.2 31 -16.1 3
12:20 1021 30.15 851 25.13 -1.2 29.9 31 -16.1 3
12:25 1021 30.15 851 25.13 -1.2 29.8 30 -16.7 1.9
12:30 1021 30.15 851 25.13 -1.3 29.7 31 -16.4 2.5
12:35 1021 30.15 850 25.1 -1 30.2 29 -16.7 1.9
12:40 1021 30.15 850 25.1 -1.1 30.1 28 -17.6 0.3
12:45 1021 30.15 850 25.1 -1.2 29.8 29 -16.9 1.5
12:50 1021 30.15 850 25.1 -0.9 30.5 28 -17.1 1.2
12:55 1021 30.15 850 25.1 -0.6 30.9 28 -16.9 1.6
13:00 1021 30.15 850 25.1 -0.3 31.5 28 -16.7 2
13:05 1021 30.15 850 25.1 -0.2 31.6 28 -16.6 2.2
13:10 1021 30.15 850 25.1 -0.2 31.6 29 -16.4 2.4
13:15 1021 30.15 850 25.1 -0.2 31.6 28 -16.7 2
13:20 1021 30.15 850 25.1 -0.3 31.5 29 -16.3 2.6
13:25 1021 30.15 850 25.1 -0.3 31.4 29 -16.5 2.3
13:30 1021 30.15 850 25.1 -0.2 31.7 29 -16.1 3
13:35 1021 30.15 850 25.1 -0.3 31.5 30 -16 3.2
13:40 1021 30.15 850 25.1 -0.2 31.6 30 -15.7 3.7
13:45 1021 30.15 850 25.1 -0.5 31.2 31 -15.8 3.6
13:50 1021 30.15 850 25.1 -0.2 31.7 30 -15.8 3.6
13:55 1021 30.15 850 25.1 0 32.1 29 -16 3.2
14:00 1021 30.15 850 25.1 0.3 32.5 29 -15.9 3.4
14:05 1021 30.15 850 25.1 0.2 32.3 29 -15.7 3.7
14:10 1021 30.15 850 25.1 0.6 33.1 28 -15.7 3.7
14:15 1021 30.15 850 25.1 0.1 32.3 32 -14.8 5.4
14:20 1021 30.15 850 25.1 -0 32 30 -15.6 3.9
14:25 1021 30.15 850 25.1 0.1 32.3 30 -15.3 4.4
14:30 1021 30.15 850 25.1 0.6 33 30 -15.2 4.6
14:35 1021 30.15 850 25.1 0.5 32.9 30 -15.4 4.4
14:40 1021 30.15 850 25.1 0.1 32.3 31 -15.1 4.9
14:45 1021 30.15 850 25.1 -0.2 31.6 33 -14.8 5.4
14:50 1021 30.15 850 25.1 -0.5 31.1 32 -15.3 4.5
14:55 1021 30.15 850 25.1 -1.2 29.9 34 -15 5
15:00 1021 30.15 850 25.1 -1.4 29.5 35 -14.8 5.3
15:05 1021 30.15 850 25.1 -1.2 29.8 38 -13.9 7
15:10 1021 30.15 850 25.1 -1.1 30 40 -13.2 8.2
15:15 1021 30.15 850 25.1 -0.2 31.6 37 -13.1 8.3
15:20 1021 30.15 850 25.1 0.2 32.3 37 -12.8 8.9
15:25 1021 30.15 850 25.1 -0.1 31.8 39 -12.5 9.5
15:30 1021 30.15 850 25.1 -0.3 31.4 40 -12.3 9.9
15:35 1021 30.15 850 25.1 -0.1 31.8 41 -11.9 10.6
15:40 1021 30.15 850 25.1 0.4 32.7 40 -11.8 10.7
15:45 1021 30.15 850 25.1 0.7 33.2 39 -11.9 10.6
15:50 1021 30.15 850 25.1 0.5 32.8 40 -11.6 11.1
15:55 1021 30.15 850 25.1 0 32.1 41 -11.6 11.1
16:00 1021 30.15 850 25.1 -0.4 31.2 44 -11.4 11.5
16:05 1021 30.15 850 25.1 -0.7 30.7 45 -11.4 11.5
16:10 1021 30.15 850 25.1 -1 30.2 44 -11.7 10.9
16:15 1021 30.15 850 25.1 -1.2 29.9 45 -11.7 11
16:20 1021 30.15 850 25.1 -1.2 29.8 45 -11.6 11.1
16:25 1021 30.15 850 25.1 -1.2 29.8 45 -11.7 10.9
16:30 1021 30.15 850 25.1 -1.2 29.8 45 -11.9 10.7
16:35 1021 30.15 850 25.1 -1.6 29.1 47 -11.6 11.1
16:40 1021 30.15 850 25.1 -1.7 28.9 44 -12.5 9.5
16:45 1021 30.15 850 25.1 -1.7 28.9 44 -12.6 9.3
16:50 1021 30.15 850 25.1 -2.2 28 45 -12.6 9.2
16:55 1021 30.15 851 25.13 -2.3 27.8 46 -12.5 9.5
17:00 1021 30.15 851 25.13 -2.5 27.4 46 -12.6 9.2
17:05 1021 30.15 851 25.13 -2.4 27.7 45 -12.7 9.1
17:10 1021 30.15 851 25.13 -2.3 27.8 44 -12.9 8.8
17:15 1021 30.15 851 25.13 -2.2 28.1 46 -12.3 9.9
17:20 1021 30.15 851 25.13 -2 28.5 45 -12.3 9.8
17:25 1021 30.15 851 25.13 -1.9 28.5 44 -12.6 9.4
17:30 1021 30.15 851 25.13 -2 28.5 46 -12 10.4
17:35 1022 30.18 851 25.13 -1.9 28.6 46 -12.1 10.3
17:40 1022 30.18 851 25.13 -2.2 28 49 -11.6 11.1
17:45 1022 30.18 851 25.13 -2.4 27.8 48 -11.8 10.7
17:50 1022 30.18 851 25.13 -2.4 27.7 48 -11.9 10.5
17:55 1022 30.18 851 25.13 -2.5 27.6 51 -11.4 11.5
18:00 1022 30.18 851 25.13 -2.6 27.4 52 -11 12.1
18:05 1021 30.15 851 25.13 -2.9 26.8 54 -11 12.3
18:10 1022 30.18 851 25.13 -3.3 26 55 -11 12.2
18:15 1022 30.18 851 25.13 -3.5 25.7 55 -11.3 11.7
18:20 1022 30.18 851 25.13 -3.3 26 52 -11.8 10.7
18:25 1022 30.18 851 25.13 -3.5 25.7 49 -12.8 9
18:30 1022 30.18 851 25.13 -3.4 25.9 53 -11.5 11.2
18:35 1022 30.18 851 25.13 -3.5 25.7 52 -12 10.5
18:40 1022 30.18 851 25.13 -3 26.6 52 -11.7 11
18:45 1022 30.18 851 25.13 -2.8 26.9 51 -11.7 11
18:50 1022 30.18 851 25.13 -3 26.7 53 -11.3 11.6
18:55 1022 30.18 851 25.13 -3.1 26.5 54 -11.2 11.8
19:00 1022 30.18 851 25.13 -3.1 26.4 54 -11.2 11.9
19:05 1022 30.18 851 25.13 -3.6 25.6 56 -11.2 11.9
19:10 1022 30.18 851 25.13 -3.7 25.4 55 -11.4 11.6
19:15 1022 30.18 851 25.13 -3.9 25 56 -11.3 11.6
19:20 1022 30.18 851 25.13 -3.9 25 56 -11.4 11.5
19:25 1022 30.18 851 25.13 -4.1 24.6 57 -11.4 11.5
19:30 1022 30.18 851 25.13 -3.9 24.9 58 -10.9 12.3
19:35 1022 30.18 851 25.13 -3.7 25.3 57 -11.1 12
19:40 1022 30.18 851 25.13 -3.9 24.9 58 -11.1 12.1
19:45 1022 30.18 852 25.16 -4.2 24.5 59 -11.1 12
19:50 1022 30.18 851 25.13 -4.3 24.2 59 -11.1 12
19:55 1022 30.18 852 25.16 -4.3 24.3 59 -11.1 12.1
20:00 1022 30.18 851 25.13 -4.4 24.1 58 -11.4 11.6
20:05 1022 30.18 852 25.16 -4 24.8 56 -11.6 11.2
20:10 1022 30.18 851 25.13 -4 24.9 55 -11.8 10.8
20:15 1022 30.18 851 25.13 -3.8 25.1 56 -11.5 11.3
20:20 1022 30.18 852 25.16 -4.2 24.4 57 -11.6 11.1
20:25 1022 30.18 851 25.13 -4.3 24.3 56 -11.8 10.7
20:30 1022 30.18 851 25.13 -4.5 23.9 57 -11.8 10.7
20:35 1022 30.18 851 25.13 -4.5 23.9 53 -12.7 9.2
20:40 1022 30.18 852 25.16 -4.7 23.5 57 -12 10.4
20:45 1022 30.18 852 25.16 -5 23 58 -12 10.5
20:50 1022 30.18 852 25.16 -5.3 22.5 58 -12.3 9.9
20:55 1022 30.18 852 25.16 -4.9 23.1 56 -12.3 9.8
21:00 1022 30.18 851 25.13 -5.1 22.9 58 -12 10.4
21:05 1022 30.18 851 25.13 -5.2 22.7 58 -12.1 10.1
21:10 1022 30.18 851 25.13 -5.5 22.1 58 -12.5 9.5
21:15 1022 30.18 851 25.13 -5.6 21.9 60 -12.3 9.9
21:20 1022 30.18 851 25.13 -5.5 22 57 -12.7 9.1
21:25 1022 30.18 851 25.13 -5.4 22.3 57 -12.6 9.2
21:30 1022 30.18 852 25.16 -4.8 23.3 55 -12.7 9.2
21:35 1022 30.18 852 25.16 -4.7 23.5 53 -12.9 8.8
21:40 1022 30.18 852 25.16 -4.5 24 53 -12.8 9
21:45 1022 30.18 852 25.16 -4.8 23.4 54 -12.8 9
21:50 1022 30.18 852 25.16 -5.3 22.5 56 -12.8 9
21:55 1022 30.18 852 25.16 -5.2 22.7 54 -13.1 8.5
22:00 1022 30.18 852 25.16 -5.1 22.9 54 -13 8.7
22:05 1022 30.18 852 25.16 -5.6 22 55 -13.1 8.4
22:10 1023 30.21 852 25.16 -5.9 21.3 57 -13.1 8.4
22:15 1023 30.21 852 25.16 -5.9 21.3 57 -13.2 8.3
22:20 1023 30.21 852 25.16 -5.8 21.6 56 -13.1 8.4
22:25 1023 30.21 852 25.16 -5.9 21.3 57 -13.2 8.3
22:30 1023 30.21 852 25.16 -6 21.2 58 -13.1 8.4
22:35 1023 30.21 852 25.16 -5.7 21.8 55 -13.3 8.1
22:40 1023 30.21 852 25.16 -5.1 22.9 54 -13 8.7
22:45 1023 30.21 852 25.16 -5 23.1 53 -13.2 8.3
22:50 1023 30.21 852 25.16 -4.7 23.6 51 -13.5 7.8
22:55 1023 30.21 852 25.16 -4.6 23.7 52 -13 8.7
23:00 1023 30.21 852 25.16 -4.7 23.5 53 -13 8.6
23:05 1023 30.21 852 25.16 -4.7 23.6 53 -12.9 8.7
23:10 1023 30.21 852 25.16 -4.8 23.3 54 -12.9 8.9
23:15 1023 30.21 852 25.16 -5.1 22.8 53 -13.3 8.1
23:20 1023 30.21 852 25.16 -5.1 22.9 52 -13.4 7.9
23:25 1023 30.21 852 25.16 -4.9 23.1 52 -13.2 8.2
23:30 1023 30.21 852 25.16 -5 22.9 53 -13.2 8.2
23:35 1023 30.21 852 25.16 -5.1 22.9 53 -13.3 8
23:40 1023 30.21 852 25.16 -5.2 22.6 54 -13.3 8.1
23:45 1023 30.21 852 25.16 -5.4 22.3 54 -13.3 8.1
23:50 1023 30.21 852 25.16 -5.3 22.4 53 -13.6 7.6
23:55 1023 30.21 852 25.16 -5.2 22.7 53 -13.4 7.9
24:00 1023 30.21 852 25.16 -5.2 22.6 53 -13.4 7.9